Time;durP1;ratioP1;P1;durP2;ratioP2;P2;SDS_P1;SDS_P2;PMS_P1;PMS_P2;Temp;Humidity;BMP_temperature;BMP_pressure;BME280_temperature;BME280_humidity;BME280_pressure;Samples;Min_cycle;Max_cycle;Signal;HPM_P1;HPM_P2
2022/07/10 00:02:09;;;;;;;2.10;1.30;;;13.90;99.90;;;;;;5072096;28;20167;-70
2022/07/10 00:04:34;;;;;;;2.93;1.00;;;13.90;99.90;;;;;;5071081;28;20526;-70
2022/07/10 00:07:01;;;;;;;8.27;1.60;;;13.80;99.90;;;;;;5071784;28;20241;-71
2022/07/10 00:09:28;;;;;;;1.27;0.90;;;13.80;99.90;;;;;;5070749;28;20197;-70
2022/07/10 00:11:53;;;;;;;1.73;1.50;;;13.80;99.90;;;;;;5071912;28;20448;-70
2022/07/10 00:14:20;;;;;;;3.27;0.83;;;13.80;99.90;;;;;;5071745;28;20466;-70
2022/07/10 00:16:45;;;;;;;1.33;1.00;;;13.70;99.90;;;;;;5071841;28;20158;-71
2022/07/10 00:19:11;;;;;;;1.03;0.87;;;13.70;99.90;;;;;;5070850;28;21025;-70
2022/07/10 00:21:37;;;;;;;1.10;1.00;;;13.70;99.90;;;;;;5071796;28;20174;-70
2022/07/10 00:24:03;;;;;;;1.60;1.00;;;13.70;99.90;;;;;;5071739;28;20178;-70
2022/07/10 00:26:28;;;;;;;1.20;0.83;;;13.60;99.90;;;;;;5071216;28;20322;-70
2022/07/10 00:28:54;;;;;;;2.07;1.33;;;13.60;99.90;;;;;;5071724;28;20431;-70
2022/07/10 00:31:20;;;;;;;5.17;1.20;;;13.50;99.90;;;;;;5070439;28;20705;-69
2022/07/10 00:33:47;;;;;;;4.13;1.97;;;13.50;99.90;;;;;;5072071;28;20402;-70
2022/07/10 00:36:13;;;;;;;1.20;0.90;;;13.50;99.90;;;;;;5071568;28;20635;-70
2022/07/10 00:38:38;;;;;;;3.43;1.00;;;13.50;99.90;;;;;;5070330;28;20563;-69
2022/07/10 00:41:04;;;;;;;1.00;0.80;;;13.40;99.90;;;;;;5071776;28;20167;-71
2022/07/10 00:43:29;;;;;;;2.80;1.13;;;13.40;99.90;;;;;;5071629;28;20170;-71
2022/07/10 00:45:55;;;;;;;1.73;1.03;;;13.40;99.90;;;;;;5071167;28;20178;-69
2022/07/10 00:48:20;;;;;;;2.80;1.53;;;13.40;99.90;;;;;;5071350;28;20197;-70
2022/07/10 00:50:46;;;;;;;2.80;1.83;;;13.30;99.90;;;;;;5070318;28;20690;-71
2022/07/10 00:53:13;;;;;;;1.80;1.70;;;13.30;99.90;;;;;;5071530;28;20182;-71
2022/07/10 00:55:39;;;;;;;2.60;1.10;;;13.30;99.90;;;;;;5069989;28;20786;-70
2022/07/10 00:58:07;;;;;;;1.50;0.97;;;13.30;99.90;;;;;;5071416;28;20750;-70
2022/07/10 01:00:35;;;;;;;2.53;1.00;;;13.30;99.90;;;;;;5071594;28;20404;-70
2022/07/10 01:03:00;;;;;;;1.23;0.93;;;13.30;99.90;;;;;;5070366;28;20408;-70
2022/07/10 01:05:26;;;;;;;2.60;1.30;;;13.30;99.90;;;;;;5071311;28;20909;-71
2022/07/10 01:07:52;;;;;;;2.47;1.30;;;13.30;99.90;;;;;;5071478;28;20166;-71
2022/07/10 01:10:17;;;;;;;1.20;0.97;;;13.40;99.90;;;;;;5070037;28;20202;-70
2022/07/10 01:12:43;;;;;;;1.20;1.10;;;13.50;99.90;;;;;;5070060;28;20805;-70
2022/07/10 01:15:10;;;;;;;9.23;0.93;;;13.50;99.90;;;;;;5069863;28;20709;-70
2022/07/10 01:17:36;;;;;;;1.23;0.90;;;13.60;99.90;;;;;;5074450;28;20401;-71
2022/07/10 01:20:06;;;;;;;1.10;0.90;;;13.70;99.90;;;;;;5074856;28;20428;-71
2022/07/10 01:22:32;;;;;;;11.73;1.97;;;13.80;99.90;;;;;;5073858;28;20192;-70
2022/07/10 01:24:58;;;;;;;1.40;0.90;;;13.90;99.90;;;;;;5073357;28;20420;-71
2022/07/10 01:27:23;;;;;;;1.63;1.00;;;14.00;99.90;;;;;;5075475;28;20457;-71
2022/07/10 01:29:51;;;;;;;1.50;1.10;;;14.00;99.90;;;;;;5074418;28;20198;-71
2022/07/10 01:32:16;;;;;;;3.43;1.17;;;14.10;99.90;;;;;;5075093;28;20535;-71
2022/07/10 01:34:42;;;;;;;2.40;1.00;;;14.20;99.90;;;;;;5074524;28;20400;-72
2022/07/10 01:37:07;;;;;;;2.40;1.33;;;14.20;99.90;;;;;;5073655;28;20162;-71
2022/07/10 01:39:33;;;;;;;1.10;0.80;;;14.30;99.90;;;;;;5075042;28;20211;-70
2022/07/10 01:41:59;;;;;;;3.40;1.33;;;14.30;99.90;;;;;;5074109;28;20170;-70
2022/07/10 01:44:24;;;;;;;1.20;1.10;;;14.30;99.90;;;;;;5075088;28;20162;-71
2022/07/10 01:46:50;;;;;;;2.30;1.20;;;14.40;99.90;;;;;;5075163;28;20166;-71
2022/07/10 01:49:15;;;;;;;1.20;0.93;;;14.40;99.90;;;;;;5074113;28;20194;-70
2022/07/10 01:51:42;;;;;;;3.77;2.50;;;14.30;99.90;;;;;;5075308;28;20598;-71
2022/07/10 01:54:07;;;;;;;1.47;0.80;;;14.30;99.90;;;;;;5074508;28;20232;-70
2022/07/10 01:56:33;;;;;;;3.47;1.67;;;14.30;99.90;;;;;;5074510;28;20397;-71
2022/07/10 01:59:00;;;;;;;1.33;1.17;;;14.40;99.90;;;;;;5073029;28;20197;-70
2022/07/10 02:01:25;;;;;;;2.90;1.20;;;14.40;99.90;;;;;;5074401;28;20173;-71
2022/07/10 02:06:35;;;;;;;1.93;1.27;;;14.40;99.90;;;;;;5074464;28;20265;-71
2022/07/10 02:09:00;;;;;;;1.40;1.10;;;14.40;99.90;;;;;;5074117;28;21040;-70
2022/07/10 02:11:26;;;;;;;1.60;1.10;;;14.40;99.90;;;;;;5073978;28;20225;-70
2022/07/10 02:13:51;;;;;;;1.03;0.93;;;14.50;99.90;;;;;;5072820;28;20173;-71
2022/07/10 02:16:17;;;;;;;1.27;1.13;;;14.60;99.90;;;;;;5072557;28;20170;-70
2022/07/10 02:18:43;;;;;;;3.77;2.27;;;14.60;99.90;;;;;;5073983;28;20182;-70
2022/07/10 02:21:08;;;;;;;1.27;0.80;;;14.70;99.90;;;;;;5073975;28;20162;-70
2022/07/10 02:23:35;;;;;;;1.37;1.10;;;14.70;99.90;;;;;;5073928;28;20174;-71
2022/07/10 02:26:01;;;;;;;2.97;1.23;;;14.70;99.90;;;;;;5073704;28;20588;-71
2022/07/10 02:28:27;;;;;;;1.00;0.80;;;14.80;99.90;;;;;;5073057;28;20431;-69
2022/07/10 02:30:53;;;;;;;2.30;1.00;;;14.80;99.90;;;;;;5073621;28;20452;-71
2022/07/10 02:33:18;;;;;;;1.33;1.17;;;14.80;99.90;;;;;;5072643;28;20448;-71
2022/07/10 02:35:44;;;;;;;1.20;1.10;;;14.70;99.90;;;;;;5073354;28;20412;-70
2022/07/10 02:38:10;;;;;;;1.63;1.00;;;14.70;99.90;;;;;;5073883;28;20163;-71
2022/07/10 02:40:35;;;;;;;1.50;1.00;;;14.80;99.90;;;;;;5073982;28;20174;-71
2022/07/10 02:43:01;;;;;;;3.07;1.10;;;14.70;99.90;;;;;;5073148;28;20181;-71
2022/07/10 02:45:26;;;;;;;3.40;1.23;;;14.70;99.90;;;;;;5073880;28;20170;-70
2022/07/10 02:47:52;;;;;;;1.53;1.10;;;14.60;99.90;;;;;;5072614;28;20670;-71
2022/07/10 02:50:17;;;;;;;2.60;1.80;;;14.60;99.90;;;;;;5072158;28;20592;-72
2022/07/10 02:52:43;;;;;;;1.00;0.80;;;14.50;99.90;;;;;;5073104;28;20754;-71
2022/07/10 02:55:08;;;;;;;1.23;0.87;;;14.50;99.90;;;;;;5072959;28;20682;-72
2022/07/10 02:57:34;;;;;;;1.07;0.90;;;14.50;99.90;;;;;;5073425;28;20193;-71
2022/07/10 02:59:59;;;;;;;2.70;0.77;;;14.40;99.90;;;;;;5071767;28;20186;-70
2022/07/10 03:02:26;;;;;;;9.60;1.87;;;14.40;99.90;;;;;;5072969;28;20173;-70
2022/07/10 03:04:52;;;;;;;1.87;0.90;;;14.30;99.90;;;;;;5071546;28;20253;-70
2022/07/10 03:07:17;;;;;;;2.53;1.00;;;14.30;99.90;;;;;;5073001;28;20493;-71
2022/07/10 03:09:43;;;;;;;4.17;1.23;;;14.40;99.90;;;;;;5072989;28;20324;-70
2022/07/10 03:12:08;;;;;;;1.37;0.80;;;14.30;99.90;;;;;;5072964;28;20672;-70
2022/07/10 03:14:34;;;;;;;2.60;0.97;;;14.30;99.90;;;;;;5071416;28;20772;-70
2022/07/10 03:16:59;;;;;;;3.00;1.20;;;14.40;99.90;;;;;;5071380;28;20163;-71
2022/07/10 03:19:25;;;;;;;1.93;0.80;;;14.40;99.90;;;;;;5072629;28;20675;-71
2022/07/10 03:21:51;;;;;;;1.10;1.00;;;14.40;99.90;;;;;;5072704;28;20212;-70
2022/07/10 03:24:16;;;;;;;3.47;1.67;;;14.40;99.90;;;;;;5072476;28;20197;-71
2022/07/10 03:26:42;;;;;;;1.30;1.13;;;14.40;99.90;;;;;;5073422;28;20196;-70
2022/07/10 03:29:08;;;;;;;1.83;1.07;;;14.40;99.90;;;;;;5072411;28;20208;-71
2022/07/10 03:31:34;;;;;;;1.03;0.80;;;14.40;99.90;;;;;;5072412;28;20205;-71
2022/07/10 03:33:59;;;;;;;1.13;0.90;;;14.40;99.90;;;;;;5072313;28;20428;-70
2022/07/10 03:36:25;;;;;;;2.03;1.17;;;14.30;99.90;;;;;;5072009;28;20170;-70
2022/07/10 03:38:50;;;;;;;1.60;1.17;;;14.30;99.90;;;;;;5072143;28;20303;-70
2022/07/10 03:41:16;;;;;;;6.20;1.57;;;14.30;99.90;;;;;;5071041;28;20231;-70
2022/07/10 03:43:41;;;;;;;1.77;0.83;;;14.30;99.90;;;;;;5072239;28;20180;-70
2022/07/10 03:46:07;;;;;;;1.20;0.80;;;14.30;99.90;;;;;;5071883;28;20185;-70
2022/07/10 03:48:33;;;;;;;1.43;0.90;;;14.30;99.90;;;;;;5072217;28;20661;-71
2022/07/10 03:50:59;;;;;;;1.10;0.83;;;14.20;99.90;;;;;;5072137;28;20250;-71
2022/07/10 03:53:25;;;;;;;3.00;1.47;;;14.20;99.90;;;;;;5072164;28;20782;-71
2022/07/10 03:55:50;;;;;;;2.40;1.13;;;14.20;99.90;;;;;;5070665;28;20412;-71
2022/07/10 03:58:16;;;;;;;1.97;1.17;;;14.20;99.90;;;;;;5072020;28;20193;-71
2022/07/10 04:00:43;;;;;;;1.17;0.90;;;14.20;99.90;;;;;;5072198;28;20252;-70
2022/07/10 04:03:09;;;;;;;2.83;1.07;;;14.20;99.90;;;;;;5072084;28;20239;-71
2022/07/10 04:05:35;;;;;;;5.20;1.00;;;14.30;99.90;;;;;;5071822;28;20412;-70
2022/07/10 04:08:02;;;;;;;3.43;1.03;;;14.30;99.90;;;;;;5071966;28;20465;-71
2022/07/10 04:10:29;;;;;;;1.73;1.20;;;14.20;99.90;;;;;;5070879;28;21057;-71
2022/07/10 04:12:55;;;;;;;4.23;1.33;;;14.20;99.90;;;;;;5071731;28;20461;-70
2022/07/10 04:15:21;;;;;;;1.40;1.10;;;14.20;99.90;;;;;;5071753;28;20405;-71
2022/07/10 04:17:47;;;;;;;2.27;1.00;;;14.10;99.90;;;;;;5070591;28;20174;-71
2022/07/10 04:20:14;;;;;;;3.60;1.53;;;14.10;99.90;;;;;;5071589;28;20482;-70
2022/07/10 04:22:39;;;;;;;2.70;2.10;;;14.10;99.90;;;;;;5071835;28;20412;-70
2022/07/10 04:25:05;;;;;;;2.43;1.30;;;14.10;99.90;;;;;;5070092;28;20812;-70
2022/07/10 04:27:32;;;;;;;2.80;1.70;;;14.10;99.90;;;;;;5071989;28;20178;-71
2022/07/10 04:29:57;;;;;;;1.70;1.13;;;14.10;99.90;;;;;;5071250;28;20474;-70
2022/07/10 04:32:23;;;;;;;1.93;1.23;;;14.00;99.90;;;;;;5071886;28;20483;-70
2022/07/10 04:34:48;;;;;;;2.33;0.90;;;14.00;99.90;;;;;;5071285;28;20181;-70
2022/07/10 04:37:14;;;;;;;3.83;1.10;;;14.00;99.90;;;;;;5071737;28;20454;-70
2022/07/10 04:39:40;;;;;;;2.70;1.20;;;14.10;99.90;;;;;;5070204;28;20288;-71
2022/07/10 04:42:07;;;;;;;2.33;1.27;;;14.10;99.90;;;;;;5071687;28;20661;-71
2022/07/10 04:44:33;;;;;;;3.63;2.20;;;14.10;99.90;;;;;;5071371;28;20170;-70
2022/07/10 04:46:59;;;;;;;3.10;1.37;;;14.10;99.90;;;;;;5071687;28;20416;-71
2022/07/10 04:49:25;;;;;;;1.40;1.23;;;14.20;99.90;;;;;;5069996;28;20444;-71
2022/07/10 04:51:51;;;;;;;3.00;1.30;;;14.30;99.90;;;;;;5073238;28;20220;-71
2022/07/10 04:54:16;;;;;;;2.07;1.30;;;14.30;99.90;;;;;;5073989;28;20420;-71
2022/07/10 04:56:42;;;;;;;2.60;1.50;;;14.40;99.90;;;;;;5075618;28;20211;-71
2022/07/10 04:59:09;;;;;;;1.63;1.20;;;14.50;99.90;;;;;;5075436;28;20576;-71
2022/07/10 05:01:35;;;;;;;2.47;1.40;;;14.60;99.90;;;;;;5075418;28;20193;-71
2022/07/10 05:04:00;;;;;;;1.93;1.73;;;14.80;99.90;;;;;;5075378;28;20409;-71
2022/07/10 05:06:26;;;;;;;2.30;1.40;;;15.00;99.90;;;;;;5076569;28;20416;-71
2022/07/10 05:08:51;;;;;;;1.63;1.40;;;15.30;99.90;;;;;;5075778;28;20551;-71
2022/07/10 05:11:17;;;;;;;2.37;1.43;;;15.60;99.90;;;;;;5075112;28;20202;-71
2022/07/10 05:13:46;;;;;;;2.57;1.77;;;15.80;99.90;;;;;;5074943;28;20166;-71
2022/07/10 05:16:12;;;;;;;2.33;1.60;;;16.00;99.90;;;;;;5075969;28;20163;-71
2022/07/10 05:18:38;;;;;;;1.23;1.13;;;16.10;99.90;;;;;;5075525;28;20844;-71
2022/07/10 05:21:04;;;;;;;4.33;1.40;;;16.20;99.90;;;;;;5075347;28;20412;-71
2022/07/10 05:23:30;;;;;;;6.50;1.20;;;16.30;99.90;;;;;;5075393;28;20919;-71
2022/07/10 05:25:55;;;;;;;1.67;0.90;;;16.30;99.90;;;;;;5074985;28;20552;-71
2022/07/10 05:28:21;;;;;;;1.50;1.17;;;16.30;99.90;;;;;;5075192;28;20190;-71
2022/07/10 05:30:46;;;;;;;2.43;1.13;;;16.40;99.90;;;;;;5074962;28;20209;-70
2022/07/10 05:33:12;;;;;;;1.20;1.10;;;16.40;99.90;;;;;;5074933;28;20166;-71
2022/07/10 05:35:37;;;;;;;3.30;0.80;;;16.40;99.90;;;;;;5074906;28;20166;-71
2022/07/10 05:38:03;;;;;;;1.40;0.97;;;16.60;99.90;;;;;;5075931;28;20182;-71
2022/07/10 05:40:28;;;;;;;1.93;1.03;;;16.60;99.90;;;;;;5076051;28;20166;-71
2022/07/10 05:42:54;;;;;;;2.13;0.90;;;16.80;99.90;;;;;;5074892;28;20170;-71
2022/07/10 05:45:19;;;;;;;1.10;0.90;;;16.90;99.90;;;;;;5074538;28;20209;-71
2022/07/10 05:47:45;;;;;;;3.97;1.10;;;17.00;99.90;;;;;;5074577;28;20215;-72
2022/07/10 05:50:11;;;;;;;1.30;1.20;;;17.30;99.90;;;;;;5073338;28;20285;-70
2022/07/10 05:52:37;;;;;;;3.10;1.60;;;17.60;99.90;;;;;;5073276;28;20193;-70
2022/07/10 05:55:04;;;;;;;2.70;0.70;;;17.80;99.90;;;;;;5072925;28;20570;-70
2022/07/10 05:57:31;;;;;;;1.33;0.70;;;18.20;99.90;;;;;;5074327;28;20516;-70
2022/07/10 05:59:56;;;;;;;1.33;1.20;;;18.50;99.90;;;;;;5074393;28;20445;-71
2022/07/10 06:02:22;;;;;;;1.90;1.10;;;18.80;99.90;;;;;;5072431;28;20467;-71
2022/07/10 06:04:48;;;;;;;2.23;1.23;;;19.10;99.90;;;;;;5073634;28;20177;-71
2022/07/10 06:07:13;;;;;;;2.60;1.27;;;19.40;99.90;;;;;;5074340;28;20678;-71
2022/07/10 06:09:39;;;;;;;4.63;1.20;;;19.80;99.90;;;;;;5074272;28;20190;-71
2022/07/10 06:12:05;;;;;;;2.40;0.90;;;20.00;99.90;;;;;;5074165;28;20200;-72
2022/07/10 06:14:31;;;;;;;2.30;1.10;;;20.20;99.90;;;;;;5073780;28;20257;-71
2022/07/10 06:16:56;;;;;;;2.33;0.90;;;20.20;99.90;;;;;;5074022;28;20488;-71
2022/07/10 06:19:22;;;;;;;2.70;1.60;;;20.20;99.90;;;;;;5074089;28;20273;-71
2022/07/10 06:21:47;;;;;;;2.97;2.77;;;20.50;99.90;;;;;;5074326;28;20170;-71
2022/07/10 06:24:13;;;;;;;2.43;1.30;;;21.10;99.90;;;;;;5074045;28;20296;-71
2022/07/10 06:26:38;;;;;;;1.70;1.00;;;21.90;99.90;;;;;;5073777;28;20535;-71
2022/07/10 06:29:04;;;;;;;1.93;0.70;;;22.60;99.90;;;;;;5072498;28;20580;-73
2022/07/10 06:31:29;;;;;;;1.43;1.10;;;23.20;99.90;;;;;;5074161;28;20190;-69
2022/07/10 06:33:55;;;;;;;1.90;0.90;;;23.20;99.90;;;;;;5073014;28;20172;-69
2022/07/10 06:36:21;;;;;;;1.37;1.27;;;23.00;99.90;;;;;;5072587;28;20270;-69
2022/07/10 06:38:46;;;;;;;2.27;0.97;;;23.20;99.90;;;;;;5073917;28;20225;-69
2022/07/10 06:41:12;;;;;;;1.63;0.90;;;23.80;99.90;;;;;;5073973;28;20166;-70
2022/07/10 06:43:37;;;;;;;1.10;0.90;;;24.30;97.30;;;;;;5074074;28;20228;-72
2022/07/10 06:46:03;;;;;;;1.17;0.97;;;24.80;95.00;;;;;;5073630;28;20185;-70
2022/07/10 06:48:29;;;;;;;2.70;0.93;;;24.80;93.20;;;;;;5073564;28;20190;-72
2022/07/10 06:50:54;;;;;;;2.20;1.57;;;24.60;92.80;;;;;;5073517;28;20194;-72
2022/07/10 06:53:26;;;;;;;2.70;1.03;;;24.20;92.00;;;;;;5073437;28;20186;-72
2022/07/10 06:55:52;;;;;;;6.60;1.37;;;23.60;93.20;;;;;;5073339;28;20565;-71
2022/07/10 06:58:18;;;;;;;3.10;1.10;;;22.90;97.50;;;;;;5073982;28;20513;-71
2022/07/10 07:00:43;;;;;;;1.23;0.80;;;22.40;99.90;;;;;;5072933;28;20193;-71
2022/07/10 07:03:09;;;;;;;2.07;1.00;;;21.60;99.90;;;;;;5074455;28;20174;-71
2022/07/10 07:05:34;;;;;;;7.83;1.20;;;21.20;99.90;;;;;;5073171;28;20181;-71
2022/07/10 07:08:00;;;;;;;1.30;0.87;;;20.80;99.90;;;;;;5073337;28;20178;-71
2022/07/10 07:10:26;;;;;;;3.17;1.53;;;20.50;99.90;;;;;;5073427;28;20194;-71
2022/07/10 07:12:51;;;;;;;1.20;0.90;;;20.00;99.90;;;;;;5073707;28;20170;-72
2022/07/10 07:15:17;;;;;;;1.07;0.93;;;19.80;99.90;;;;;;5071543;28;20174;-72
2022/07/10 07:23:28;;;;;;;1.50;1.07;;;19.20;99.90;;;;;;5075076;28;20464;-71
2022/07/10 07:25:54;;;;;;;1.60;0.90;;;19.20;99.90;;;;;;5071875;28;20523;-71
2022/07/10 07:28:20;;;;;;;2.10;0.80;;;19.30;99.90;;;;;;5071831;28;20283;-71
2022/07/10 07:30:47;;;;;;;1.33;1.00;;;19.30;99.90;;;;;;5071939;28;20765;-71
2022/07/10 07:33:13;;;;;;;5.60;1.30;;;19.40;99.90;;;;;;5073266;28;20404;-71
2022/07/10 07:35:39;;;;;;;1.20;0.90;;;19.40;99.90;;;;;;5071627;28;20494;-71
2022/07/10 07:38:05;;;;;;;2.33;1.20;;;19.40;99.90;;;;;;5072918;28;20405;-71
2022/07/10 07:40:32;;;;;;;1.27;0.93;;;19.50;99.90;;;;;;5073061;28;20417;-71
2022/07/10 07:42:58;;;;;;;3.67;1.10;;;19.60;99.90;;;;;;5073222;28;20412;-71
2022/07/10 07:45:25;;;;;;;2.30;1.47;;;19.70;99.90;;;;;;5072589;28;20407;-72
2022/07/10 07:47:50;;;;;;;2.20;1.20;;;19.80;99.90;;;;;;5072696;28;20412;-71
2022/07/10 07:50:18;;;;;;;2.50;1.13;;;20.00;99.90;;;;;;5072752;28;20999;-71
2022/07/10 07:52:45;;;;;;;3.57;3.10;;;20.00;99.90;;;;;;5072937;28;20273;-70
2022/07/10 07:55:12;;;;;;;1.10;0.87;;;20.10;99.90;;;;;;5072404;28;20399;-72
2022/07/10 07:57:38;;;;;;;3.73;1.43;;;20.20;99.90;;;;;;5072572;28;20905;-72
2022/07/10 08:00:05;;;;;;;1.80;1.13;;;20.30;99.90;;;;;;5072262;28;20424;-72
2022/07/10 08:02:31;;;;;;;1.23;1.03;;;20.50;99.90;;;;;;5072383;28;20924;-72
2022/07/10 08:04:56;;;;;;;1.40;0.80;;;20.80;99.90;;;;;;5072176;28;20408;-72
2022/07/10 08:07:22;;;;;;;2.33;0.90;;;20.90;99.90;;;;;;5072184;28;20600;-71
2022/07/10 08:09:48;;;;;;;1.30;0.80;;;21.00;99.90;;;;;;5072162;28;20319;-71
2022/07/10 08:12:14;;;;;;;1.00;0.80;;;21.10;99.90;;;;;;5070992;28;20285;-71
2022/07/10 08:14:40;;;;;;;1.57;1.23;;;21.10;99.90;;;;;;5071944;28;20509;-71
2022/07/10 08:17:05;;;;;;;1.47;0.90;;;21.00;99.90;;;;;;5072210;28;20162;-72
2022/07/10 08:19:31;;;;;;;5.40;0.93;;;21.10;99.90;;;;;;5072277;28;20189;-71
2022/07/10 08:21:56;;;;;;;1.10;0.90;;;21.10;99.90;;;;;;5071946;28;20249;-71
2022/07/10 08:24:22;;;;;;;1.00;0.63;;;20.90;99.90;;;;;;5070644;28;20263;-72
2022/07/10 08:26:47;;;;;;;1.57;0.80;;;20.80;99.90;;;;;;5071479;28;20174;-72
2022/07/10 08:29:13;;;;;;;6.60;2.10;;;20.60;99.90;;;;;;5071049;28;20289;-71
2022/07/10 08:31:39;;;;;;;2.53;1.47;;;20.60;99.90;;;;;;5072125;28;20606;-71
2022/07/10 08:34:05;;;;;;;1.10;0.70;;;20.70;99.90;;;;;;5070890;28;20537;-71
2022/07/10 08:36:31;;;;;;;4.60;1.00;;;20.80;99.90;;;;;;5071786;28;20396;-71
2022/07/10 08:38:58;;;;;;;2.10;0.83;;;20.90;99.90;;;;;;5072096;28;20222;-71
2022/07/10 08:41:27;;;;;;;1.90;1.53;;;21.40;99.90;;;;;;5072072;28;20167;-72
2022/07/10 08:43:53;;;;;;;1.20;0.70;;;22.10;99.90;;;;;;5072422;28;20416;-72
2022/07/10 08:46:18;;;;;;;1.43;1.13;;;22.80;99.90;;;;;;5070961;28;20421;-72
2022/07/10 08:48:49;;;;;;;3.10;1.20;;;23.80;99.90;;;;;;5070996;28;20519;-70
2022/07/10 08:51:41;;;;;;;2.50;1.03;;;24.40;99.90;;;;;;5072662;28;20456;-70
2022/07/10 08:54:08;;;;;;;1.90;0.80;;;25.00;97.90;;;;;;5034092;28;20442;-69
2022/07/10 08:56:34;;;;;;;2.50;1.47;;;25.10;94.90;;;;;;5072095;28;20496;-70
2022/07/10 08:59:02;;;;;;;1.53;0.87;;;25.00;93.80;;;;;;5072419;28;20424;-70
2022/07/10 09:01:27;;;;;;;1.50;0.93;;;24.80;95.50;;;;;;5072179;28;20508;-69
2022/07/10 09:03:53;;;;;;;2.93;0.90;;;24.60;96.30;;;;;;5072300;28;21023;-69
2022/07/10 09:06:18;;;;;;;1.87;1.33;;;24.60;95.80;;;;;;5072092;28;20196;-70
2022/07/10 09:09:02;;;;;;;1.10;1.00;;;24.30;96.70;;;;;;5070652;28;20269;-71
2022/07/10 09:11:29;;;;;;;2.47;1.50;;;23.70;98.10;;;;;;5071555;28;20190;-71
2022/07/10 09:14:00;;;;;;;1.77;1.03;;;23.30;98.00;;;;;;5071613;28;20903;-71
2022/07/10 09:16:27;;;;;;;1.67;1.33;;;23.10;99.40;;;;;;5071392;28;20408;-70
2022/07/10 09:18:53;;;;;;;2.13;1.17;;;22.90;99.90;;;;;;5071668;28;20813;-71
2022/07/10 09:21:20;;;;;;;1.20;1.00;;;22.80;99.90;;;;;;5071504;28;20413;-70
2022/07/10 09:23:46;;;;;;;1.50;1.40;;;22.80;99.90;;;;;;5070196;28;20801;-70
2022/07/10 09:26:12;;;;;;;2.13;0.80;;;22.70;99.90;;;;;;5071442;28;20912;-70
2022/07/10 09:28:38;;;;;;;1.43;1.00;;;22.80;99.90;;;;;;5070110;28;20440;-70
2022/07/10 09:31:03;;;;;;;1.63;1.20;;;22.70;99.90;;;;;;5071474;28;20718;-70
2022/07/10 09:33:30;;;;;;;1.60;0.90;;;22.90;99.90;;;;;;5071996;28;20411;-71
2022/07/10 09:36:13;;;;;;;1.90;0.97;;;23.30;99.90;;;;;;5070246;28;20202;-70
2022/07/10 09:38:48;;;;;;;4.90;1.30;;;23.50;99.90;;;;;;5074669;28;20435;-70
2022/07/10 09:41:29;;;;;;;3.37;1.13;;;24.30;99.90;;;;;;5075465;28;20404;-71
2022/07/10 09:43:57;;;;;;;2.30;1.03;;;25.10;99.90;;;;;;5074494;28;20490;-71
2022/07/10 09:46:31;;;;;;;1.40;1.00;;;26.10;95.90;;;;;;5075389;28;20483;-71
2022/07/10 09:49:04;;;;;;;3.80;1.30;;;26.80;94.10;;;;;;5075444;28;20944;-70
2022/07/10 09:51:32;;;;;;;1.70;1.20;;;27.20;89.30;;;;;;5073745;28;20475;-71
2022/07/10 09:54:03;;;;;;;2.70;1.30;;;27.10;85.80;;;;;;5073999;28;20519;-71
2022/07/10 09:56:41;;;;;;;1.40;1.20;;;26.60;83.70;;;;;;5075300;28;20393;-71
2022/07/10 09:59:10;;;;;;;4.30;1.90;;;26.00;87.60;;;;;;5075261;28;21008;-70
2022/07/10 10:01:37;;;;;;;2.47;1.07;;;25.50;90.20;;;;;;5074907;28;20411;-71
2022/07/10 10:04:04;;;;;;;2.00;1.57;;;25.00;92.50;;;;;;5074845;28;20405;-71
2022/07/10 10:06:30;;;;;;;1.80;1.10;;;24.40;94.60;;;;;;5074667;28;20975;-71
2022/07/10 10:09:22;;;;;;;1.50;1.10;;;24.00;98.40;;;;;;5073422;28;20425;-70
2022/07/10 10:11:51;;;;;;;3.93;2.20;;;23.50;99.90;;;;;;5063502;28;20531;-70
2022/07/10 10:14:20;;;;;;;5.60;1.70;;;23.20;99.90;;;;;;5074100;28;20400;-71
2022/07/10 10:16:47;;;;;;;1.80;1.10;;;23.00;99.90;;;;;;5073091;28;20412;-70
2022/07/10 10:22:01;;;;;;;1.70;1.20;;;22.50;99.90;;;;;;5074401;28;20422;-70
2022/07/10 10:24:31;;;;;;;2.40;1.10;;;22.00;99.90;;;;;;5073933;28;20458;-71
2022/07/10 10:26:56;;;;;;;1.17;1.00;;;21.90;99.90;;;;;;5074160;28;20839;-70
2022/07/10 10:29:22;;;;;;;2.30;1.43;;;22.50;99.90;;;;;;5074516;28;20424;-71
2022/07/10 10:31:48;;;;;;;1.50;1.30;;;23.50;99.90;;;;;;5074240;28;20198;-71
2022/07/10 10:34:57;;;;;;;2.07;1.00;;;24.40;99.90;;;;;;5074731;28;20253;-70
2022/07/10 10:37:38;;;;;;;5.63;1.30;;;25.20;99.90;;;;;;5057761;28;20496;-70
2022/07/10 10:40:09;;;;;;;2.53;1.57;;;25.90;99.90;;;;;;5074431;28;20416;-71
2022/07/10 10:42:44;;;;;;;1.17;0.97;;;26.60;97.00;;;;;;5074494;28;20411;-71
2022/07/10 10:45:31;;;;;;;2.50;1.60;;;27.10;93.20;;;;;;5074620;28;20400;-71
2022/07/10 10:48:10;;;;;;;2.93;1.53;;;27.50;90.20;;;;;;5074380;28;20970;-71
2022/07/10 10:50:38;;;;;;;2.33;1.33;;;28.10;84.10;;;;;;5073489;28;20799;-71
2022/07/10 10:53:04;;;;;;;2.10;1.50;;;28.10;82.60;;;;;;5074452;28;20824;-71
2022/07/10 10:55:29;;;;;;;3.87;1.60;;;27.70;78.30;;;;;;5072903;28;20462;-71
2022/07/10 10:58:13;;;;;;;2.50;1.37;;;27.10;81.80;;;;;;5074164;28;20166;-71
2022/07/10 11:00:41;;;;;;;3.70;1.60;;;26.40;85.10;;;;;;5072834;28;20166;-71
2022/07/10 11:03:21;;;;;;;3.90;2.30;;;25.60;90.50;;;;;;5073606;28;20462;-70
2022/07/10 11:05:47;;;;;;;12.90;10.87;;;24.70;94.80;;;;;;5073619;28;20801;-73
2022/07/10 11:08:34;;;;;;;5.37;1.53;;;24.40;99.90;;;;;;5073231;28;20464;-70
2022/07/10 11:11:00;;;;;;;2.87;2.03;;;24.70;99.90;;;;;;5072406;28;20467;-71
2022/07/10 11:13:29;;;;;;;1.67;1.40;;;25.50;99.90;;;;;;5073810;28;20405;-71
2022/07/10 11:15:57;;;;;;;1.77;1.40;;;26.10;98.70;;;;;;5073644;28;20245;-70
2022/07/10 11:18:25;;;;;;;1.63;1.40;;;26.40;97.40;;;;;;5072328;28;20436;-71
2022/07/10 11:20:53;;;;;;;1.60;1.13;;;26.40;94.10;;;;;;5072502;28;20421;-71
2022/07/10 11:23:42;;;;;;;6.83;1.20;;;26.00;93.40;;;;;;5073199;28;20409;-71
2022/07/10 11:26:16;;;;;;;1.40;1.30;;;25.70;94.20;;;;;;5073082;28;20898;-70
2022/07/10 11:28:51;;;;;;;1.70;1.23;;;25.30;96.70;;;;;;5072929;28;20527;-71
2022/07/10 11:31:22;;;;;;;1.30;1.00;;;24.80;98.80;;;;;;5073059;28;20490;-70
2022/07/10 11:33:51;;;;;;;1.87;1.10;;;24.40;99.90;;;;;;5072805;28;20755;-71
2022/07/10 11:36:26;;;;;;;4.37;4.07;;;23.80;99.90;;;;;;5072656;28;20426;-70
2022/07/10 11:38:58;;;;;;;1.73;1.30;;;23.30;99.90;;;;;;5073063;28;20840;-71
2022/07/10 11:41:23;;;;;;;1.30;1.20;;;22.90;99.90;;;;;;5071879;28;20531;-70
2022/07/10 11:44:00;;;;;;;1.00;0.90;;;22.60;99.90;;;;;;5071478;28;20448;-71
2022/07/10 11:46:31;;;;;;;1.50;1.40;;;22.50;99.90;;;;;;5073388;28;20193;-70
2022/07/10 11:48:57;;;;;;;1.40;0.93;;;22.60;99.90;;;;;;5072948;28;20425;-70
2022/07/10 11:51:30;;;;;;;2.60;1.00;;;22.40;99.90;;;;;;5072536;28;20455;-70
2022/07/10 11:54:06;;;;;;;1.77;1.03;;;22.30;99.90;;;;;;5070988;28;20429;-71
2022/07/10 11:56:38;;;;;;;1.40;1.20;;;22.40;99.90;;;;;;5072514;28;20400;-71
2022/07/10 11:59:09;;;;;;;1.00;0.80;;;23.30;99.90;;;;;;5071325;28;20866;-71
2022/07/10 12:01:48;;;;;;;1.10;0.87;;;24.10;99.90;;;;;;5070719;28;20420;-70
2022/07/10 12:04:16;;;;;;;1.00;0.77;;;24.70;99.90;;;;;;5072586;28;20451;-70
2022/07/10 12:06:44;;;;;;;1.10;0.87;;;24.90;99.90;;;;;;5072830;28;20411;-71
2022/07/10 12:09:14;;;;;;;1.60;1.20;;;24.90;99.90;;;;;;5072799;28;20790;-71
2022/07/10 12:11:40;;;;;;;2.07;1.27;;;24.50;99.90;;;;;;5072814;28;20523;-70
2022/07/10 12:14:11;;;;;;;2.50;1.23;;;24.10;99.90;;;;;;5071155;28;20417;-70
2022/07/10 12:16:37;;;;;;;3.63;0.80;;;23.50;99.90;;;;;;5070866;28;20420;-71
2022/07/10 12:19:03;;;;;;;2.00;1.00;;;23.00;99.90;;;;;;5070866;28;20965;-70
2022/07/10 12:21:29;;;;;;;1.10;1.00;;;22.60;99.90;;;;;;5072178;28;20245;-71
2022/07/10 12:23:56;;;;;;;1.50;1.10;;;22.40;99.90;;;;;;5072204;28;20412;-70
2022/07/10 12:26:22;;;;;;;1.80;1.43;;;21.90;99.90;;;;;;5071999;28;20753;-70
2022/07/10 12:28:49;;;;;;;1.20;1.07;;;21.70;99.90;;;;;;5070799;28;20482;-70
2022/07/10 12:31:21;;;;;;;8.80;1.43;;;21.50;99.90;;;;;;5070661;28;20202;-70
2022/07/10 12:33:51;;;;;;;2.70;1.27;;;21.50;99.90;;;;;;5071875;28;20397;-70
2022/07/10 12:36:17;;;;;;;2.43;1.77;;;21.70;99.90;;;;;;5071803;28;20400;-71
2022/07/10 12:38:52;;;;;;;2.80;1.27;;;22.00;99.90;;;;;;5071924;28;20994;-72
2022/07/10 12:41:22;;;;;;;2.80;1.33;;;22.40;99.90;;;;;;5071805;28;20224;-70
2022/07/10 12:43:48;;;;;;;1.10;0.80;;;22.50;99.90;;;;;;5071743;28;20772;-71
2022/07/10 12:46:21;;;;;;;1.10;1.00;;;22.50;99.90;;;;;;5071372;28;20400;-71
2022/07/10 12:49:06;;;;;;;1.70;1.23;;;22.40;99.90;;;;;;5071735;28;20202;-72
2022/07/10 12:51:34;;;;;;;1.00;0.77;;;22.10;99.90;;;;;;5071596;28;20525;-71
2022/07/10 12:54:00;;;;;;;1.23;1.07;;;22.00;99.90;;;;;;5071506;28;20420;-70
2022/07/10 12:56:31;;;;;;;1.33;1.20;;;21.80;99.90;;;;;;5071458;28;20462;-72
2022/07/10 12:59:01;;;;;;;2.53;1.10;;;21.70;99.90;;;;;;5070155;28;20507;-72